Time;durP1;ratioP1;P1;durP2;ratioP2;P2;SDS_P1;SDS_P2;PMS_P1;PMS_P2;Temp;Humidity;BMP_temperature;BMP_pressure;BME280_temperature;BME280_humidity;BME280_pressure;Samples;Min_cycle;Max_cycle;Signal;HPM_P1;HPM_P2
2022/07/09 00:01:38;;;;;;;1999.90;999.90;;;17.20;99.90;;;;;;5047340;28;20486;-80
2022/07/09 00:04:04;;;;;;;1999.90;999.90;;;17.10;99.90;;;;;;5049146;28;20284;-80
2022/07/09 00:06:31;;;;;;;1999.90;999.90;;;17.10;99.90;;;;;;5050991;28;20040;-81
2022/07/09 00:08:58;;;;;;;1999.90;999.90;;;17.00;99.90;;;;;;5050795;28;20120;-81
2022/07/09 00:11:23;;;;;;;1999.90;999.90;;;17.00;99.90;;;;;;5049806;28;20048;-81
2022/07/09 00:13:49;;;;;;;1999.90;999.90;;;16.90;99.90;;;;;;5049369;28;20045;-81
2022/07/09 00:16:15;;;;;;;1999.90;999.90;;;16.90;99.90;;;;;;5049828;28;20159;-81
2022/07/09 00:18:41;;;;;;;1999.90;999.90;;;16.80;99.90;;;;;;5049419;28;20044;-80
2022/07/09 00:21:07;;;;;;;1999.90;999.90;;;16.80;99.90;;;;;;5049139;28;20394;-81
2022/07/09 00:23:33;;;;;;;1999.90;999.90;;;16.80;99.90;;;;;;5050949;28;20064;-81
2022/07/09 00:25:59;;;;;;;1999.90;999.90;;;16.80;99.90;;;;;;5050867;28;20053;-81
2022/07/09 00:28:24;;;;;;;1999.90;999.90;;;16.70;99.90;;;;;;5051128;28;20122;-80
2022/07/09 00:30:50;;;;;;;1999.90;999.90;;;16.70;99.90;;;;;;5050794;28;20126;-81
2022/07/09 00:33:16;;;;;;;1999.90;999.90;;;16.70;99.90;;;;;;5049843;28;20044;-81
2022/07/09 00:35:42;;;;;;;1999.90;999.90;;;16.70;99.90;;;;;;5049686;28;20059;-81
2022/07/09 00:38:07;;;;;;;1999.90;999.90;;;16.70;99.90;;;;;;5066345;28;20080;-80
2022/07/09 00:40:34;;;;;;;1999.90;999.90;;;16.70;99.90;;;;;;5049710;28;20242;-80
2022/07/09 00:43:00;;;;;;;1999.90;999.90;;;16.80;99.90;;;;;;5050322;28;20084;-81
2022/07/09 00:45:26;;;;;;;1999.90;999.90;;;16.80;99.90;;;;;;5050978;28;20095;-81
2022/07/09 00:47:52;;;;;;;1999.90;999.90;;;16.90;99.90;;;;;;5050333;28;20076;-81
2022/07/09 00:50:18;;;;;;;1999.90;999.90;;;16.90;99.90;;;;;;5083110;28;20120;-81
2022/07/09 00:52:45;;;;;;;1999.90;999.90;;;16.90;99.90;;;;;;5050358;28;20103;-81
2022/07/09 00:55:12;;;;;;;1999.90;999.90;;;16.90;99.90;;;;;;5049521;28;20048;-80
2022/07/09 00:57:42;;;;;;;1999.90;999.90;;;16.90;99.90;;;;;;5050172;28;20053;-80
2022/07/09 01:00:08;;;;;;;1999.90;999.90;;;16.80;99.90;;;;;;5048128;28;20520;-81
2022/07/09 01:02:34;;;;;;;1999.90;999.90;;;16.80;99.90;;;;;;5049407;28;20053;-81
2022/07/09 01:05:00;;;;;;;1999.90;999.90;;;16.80;99.90;;;;;;5049801;28;20357;-82
2022/07/09 01:07:25;;;;;;;1999.90;999.90;;;16.90;99.90;;;;;;5048486;28;20047;-81
2022/07/09 01:09:51;;;;;;;1999.90;999.90;;;16.90;99.90;;;;;;5050265;28;20076;-81
2022/07/09 01:12:17;;;;;;;1999.90;999.90;;;17.00;99.90;;;;;;5064907;28;20072;-81
2022/07/09 01:14:42;;;;;;;1999.90;999.90;;;17.00;99.90;;;;;;5049835;28;20041;-80
2022/07/09 01:17:08;;;;;;;1999.90;999.90;;;17.10;99.90;;;;;;5049430;28;20045;-81
2022/07/09 01:19:34;;;;;;;1999.90;999.90;;;17.10;99.90;;;;;;5081913;28;20041;-80
2022/07/09 01:22:01;;;;;;;1999.90;999.90;;;17.10;99.90;;;;;;5049979;28;20048;-80
2022/07/09 01:24:27;;;;;;;1999.90;999.90;;;17.10;99.90;;;;;;5049902;28;20045;-80
2022/07/09 01:26:53;;;;;;;1999.90;999.90;;;17.20;99.90;;;;;;5052482;28;20556;-80
2022/07/09 01:29:20;;;;;;;1999.90;999.90;;;17.20;99.90;;;;;;5053183;28;20064;-81
2022/07/09 01:31:46;;;;;;;1999.90;999.90;;;17.20;99.90;;;;;;5052881;28;20114;-80
2022/07/09 01:34:11;;;;;;;1999.90;999.90;;;17.30;99.90;;;;;;5052519;28;20045;-82
2022/07/09 01:36:37;;;;;;;1999.90;999.90;;;17.30;99.90;;;;;;5053213;28;20052;-81
2022/07/09 01:39:03;;;;;;;1999.90;999.90;;;17.30;99.90;;;;;;5051998;28;20080;-81
2022/07/09 01:41:30;;;;;;;1999.90;999.90;;;17.30;99.90;;;;;;5051133;28;20359;-82
2022/07/09 01:43:56;;;;;;;1999.90;999.90;;;17.30;99.90;;;;;;5067989;28;20206;-84
2022/07/09 01:46:22;;;;;;;1999.90;999.90;;;17.30;99.90;;;;;;5052424;28;20280;-81
2022/07/09 01:48:47;;;;;;;1999.90;999.90;;;17.40;99.90;;;;;;5053080;28;20048;-81
2022/07/09 01:51:13;;;;;;;1999.90;999.90;;;17.40;99.90;;;;;;5051618;28;20049;-81
2022/07/09 01:53:42;;;;;;;1999.90;999.90;;;17.40;99.90;;;;;;5052549;28;20072;-81
2022/07/09 01:56:08;;;;;;;1999.90;999.90;;;17.40;99.90;;;;;;5052451;28;20045;-81
2022/07/09 01:58:35;;;;;;;1999.90;999.90;;;17.40;99.90;;;;;;5051509;28;20140;-81
2022/07/09 02:01:01;;;;;;;1999.90;999.90;;;17.40;99.90;;;;;;5051176;28;20059;-81
2022/07/09 02:03:28;;;;;;;1999.90;999.90;;;17.40;99.90;;;;;;5083438;28;20113;-81
2022/07/09 02:05:54;;;;;;;1999.90;999.90;;;17.40;99.90;;;;;;5052131;28;20358;-81
2022/07/09 02:08:19;;;;;;;1999.90;999.90;;;17.40;99.90;;;;;;5052443;28;20055;-81
2022/07/09 02:10:45;;;;;;;1999.90;999.90;;;17.40;99.90;;;;;;5052716;28;20082;-81
2022/07/09 02:13:12;;;;;;;1999.90;999.90;;;17.40;99.90;;;;;;5052358;28;20381;-81
2022/07/09 02:15:39;;;;;;;1999.90;999.90;;;17.30;99.90;;;;;;5052274;28;20136;-81
2022/07/09 02:18:04;;;;;;;1999.90;999.90;;;17.30;99.90;;;;;;5052249;28;20175;-81
2022/07/09 02:20:30;;;;;;;1999.90;999.90;;;17.20;99.90;;;;;;5084590;28;20362;-81
2022/07/09 02:22:56;;;;;;;1999.90;999.90;;;17.20;99.90;;;;;;5051908;28;20048;-81
2022/07/09 02:25:22;;;;;;;1999.90;999.90;;;17.10;99.90;;;;;;5052626;28;20066;-81
2022/07/09 02:27:47;;;;;;;1999.90;999.90;;;17.00;99.90;;;;;;5052187;28;20327;-80
2022/07/09 02:30:13;;;;;;;1999.90;999.90;;;16.90;99.90;;;;;;5067597;28;20276;-83
2022/07/09 02:32:39;;;;;;;1999.90;999.90;;;16.90;99.90;;;;;;5050525;28;20255;-81
2022/07/09 02:35:06;;;;;;;1999.90;999.90;;;16.90;99.90;;;;;;5052205;28;20041;-81
2022/07/09 02:37:32;;;;;;;1999.90;999.90;;;16.90;99.90;;;;;;5052251;28;20053;-81
2022/07/09 02:39:58;;;;;;;1999.90;999.90;;;16.90;99.90;;;;;;5052564;28;20056;-81
2022/07/09 02:42:24;;;;;;;1999.90;999.90;;;16.90;99.90;;;;;;5068005;28;20550;-80
2022/07/09 02:44:49;;;;;;;1999.90;999.90;;;17.00;99.90;;;;;;5052412;28;20095;-81
2022/07/09 02:47:15;;;;;;;1999.90;999.90;;;17.00;99.90;;;;;;5051943;28;20045;-80
2022/07/09 02:49:41;;;;;;;1999.90;999.90;;;17.00;99.90;;;;;;5052031;28;20110;-80
2022/07/09 02:52:07;;;;;;;1999.90;999.90;;;17.00;99.90;;;;;;5052197;28;20064;-81
2022/07/09 02:54:33;;;;;;;1999.90;999.90;;;17.00;99.90;;;;;;5052448;28;20474;-80
2022/07/09 02:57:00;;;;;;;1999.90;999.90;;;17.00;99.90;;;;;;5051934;28;20049;-81
2022/07/09 02:59:25;;;;;;;1999.90;999.90;;;17.00;99.90;;;;;;5051583;28;20537;-80
2022/07/09 03:01:51;;;;;;;1999.90;999.90;;;17.00;99.90;;;;;;5050164;28;20092;-80
2022/07/09 03:04:17;;;;;;;1999.90;999.90;;;17.00;99.90;;;;;;5050280;28;20262;-80
2022/07/09 03:06:43;;;;;;;1999.90;999.90;;;17.00;99.90;;;;;;5051387;28;20045;-80
2022/07/09 03:09:09;;;;;;;1999.90;999.90;;;17.00;99.90;;;;;;5066918;28;20366;-81
2022/07/09 03:11:35;;;;;;;1999.90;999.90;;;17.10;99.90;;;;;;5050462;28;20466;-81
2022/07/09 03:14:00;;;;;;;1999.90;999.90;;;17.10;99.90;;;;;;5051024;28;20048;-81
2022/07/09 03:16:26;;;;;;;1999.90;999.90;;;17.00;99.90;;;;;;5051554;28;20045;-80
2022/07/09 03:18:52;;;;;;;1999.90;999.90;;;17.00;99.90;;;;;;5050684;28;20106;-81
2022/07/09 03:21:17;;;;;;;1999.90;999.90;;;16.90;99.90;;;;;;5050933;28;20048;-80
2022/07/09 03:23:43;;;;;;;1999.90;999.90;;;16.90;99.90;;;;;;5083519;28;20092;-81
2022/07/09 03:26:09;;;;;;;1999.90;999.90;;;16.80;99.90;;;;;;5051096;28;20041;-80
2022/07/09 03:28:35;;;;;;;1999.90;999.90;;;16.80;99.90;;;;;;5051302;28;20057;-80
2022/07/09 03:31:01;;;;;;;1999.90;999.90;;;16.80;1.00;;;;;;5049332;28;20393;-80
2022/07/09 03:33:26;;;;;;;1999.90;999.90;;;16.70;1.00;;;;;;5050149;28;20477;-81
2022/07/09 03:35:55;;;;;;;1999.90;999.90;;;16.80;1.00;;;;;;5051364;28;20478;-81
2022/07/09 03:38:21;;;;;;;1999.90;999.90;;;16.80;1.00;;;;;;5049699;28;20049;-81
2022/07/09 03:40:47;;;;;;;1999.90;999.90;;;16.80;1.00;;;;;;5050156;28;20517;-81
2022/07/09 03:43:12;;;;;;;1999.90;999.90;;;16.80;1.00;;;;;;5049645;28;20151;-80
2022/07/09 03:45:38;;;;;;;1999.90;999.90;;;16.80;1.00;;;;;;5050876;28;20041;-80
2022/07/09 03:48:04;;;;;;;1999.90;999.90;;;16.80;1.00;;;;;;5049317;28;20056;-80
2022/07/09 03:50:31;;;;;;;1999.90;999.90;;;16.80;1.00;;;;;;5050517;28;20085;-80
2022/07/09 03:52:57;;;;;;;1999.90;999.90;;;16.80;1.00;;;;;;5050883;28;20124;-80
2022/07/09 03:55:23;;;;;;;1999.90;999.90;;;16.90;1.00;;;;;;5050830;28;20048;-80
2022/07/09 03:57:50;;;;;;;1999.90;999.90;;;16.90;1.00;;;;;;5049611;28;20110;-80
2022/07/09 04:00:16;;;;;;;1999.90;999.90;;;16.90;1.00;;;;;;5048720;28;20432;-80
2022/07/09 04:02:41;;;;;;;1999.90;999.90;;;17.30;1.00;;;;;;5049105;28;20045;-80
2022/07/09 04:05:08;;;;;;;1999.90;999.90;;;16.90;1.00;;;;;;5050927;28;20099;-79
2022/07/09 04:07:35;;;;;;;1999.90;999.90;;;16.90;1.00;;;;;;5049297;28;20045;-81
2022/07/09 04:10:00;;;;;;;1999.90;999.90;;;16.90;1.00;;;;;;5050750;28;20047;-81
2022/07/09 04:12:26;;;;;;;1999.90;999.90;;;16.90;1.00;;;;;;5050487;28;20453;-80
2022/07/09 04:14:52;;;;;;;1999.90;999.90;;;16.90;1.00;;;;;;5049965;28;20045;-80
2022/07/09 04:17:17;;;;;;;1999.90;999.90;;;16.90;1.00;;;;;;5050133;28;20118;-80
2022/07/09 04:19:43;;;;;;;1999.90;999.90;;;16.90;1.00;;;;;;5050216;28;20128;-80
2022/07/09 04:22:08;;;;;;;1999.90;999.90;;;17.00;1.00;;;;;;5050939;28;20063;-80
2022/07/09 04:24:34;;;;;;;1999.90;999.90;;;17.00;1.00;;;;;;5050700;28;20555;-80
2022/07/09 04:27:00;;;;;;;1999.90;999.90;;;17.00;1.00;;;;;;5049551;28;20057;-80
2022/07/09 04:29:25;;;;;;;1999.90;999.90;;;17.00;1.00;;;;;;5050399;28;20104;-81
2022/07/09 04:31:51;;;;;;;1999.90;999.90;;;17.10;1.00;;;;;;5050359;28;20051;-80
2022/07/09 04:34:17;;;;;;;1999.90;999.90;;;17.10;1.00;;;;;;5049974;28;20048;-82
2022/07/09 04:36:43;;;;;;;1999.90;999.90;;;17.20;1.00;;;;;;5049356;28;20052;-81
2022/07/09 04:39:09;;;;;;;1999.90;999.90;;;17.20;1.00;;;;;;5049560;28;20045;-81
2022/07/09 04:41:35;;;;;;;1999.90;999.90;;;17.30;1.00;;;;;;5048608;28;20139;-80
2022/07/09 04:44:01;;;;;;;1999.90;999.90;;;17.30;1.00;;;;;;5050001;28;20080;-80
2022/07/09 04:46:27;;;;;;;1999.90;999.90;;;17.30;1.00;;;;;;5049965;28;20052;-80
2022/07/09 04:48:53;;;;;;;1999.90;999.90;;;17.40;1.00;;;;;;5050257;28;20052;-80
2022/07/09 04:51:19;;;;;;;1999.90;999.90;;;17.40;1.00;;;;;;5049584;28;20390;-83
2022/07/09 04:53:45;;;;;;;1999.90;999.90;;;17.50;1.00;;;;;;5049917;28;20427;-81
2022/07/09 04:56:10;;;;;;;1999.90;999.90;;;17.50;1.00;;;;;;5049798;28;20084;-81
2022/07/09 04:58:37;;;;;;;1999.90;999.90;;;17.50;1.00;;;;;;5050130;28;20048;-82
2022/07/09 05:01:03;;;;;;;1999.90;999.90;;;17.50;1.00;;;;;;5049215;28;20049;-81
2022/07/09 05:03:29;;;;;;;1999.90;999.90;;;17.60;1.00;;;;;;5068058;28;20052;-83
2022/07/09 05:05:55;;;;;;;1999.90;999.90;;;17.70;1.00;;;;;;5086342;28;20053;-81
2022/07/09 05:08:21;;;;;;;1999.90;999.90;;;17.70;1.00;;;;;;5053244;28;20087;-83
2022/07/09 05:10:46;;;;;;;1999.90;999.90;;;17.80;1.00;;;;;;5085809;28;20438;-81
2022/07/09 05:13:12;;;;;;;1999.90;999.90;;;17.90;1.00;;;;;;5053155;28;20037;-81
2022/07/09 05:15:38;;;;;;;1999.90;999.90;;;17.90;1.00;;;;;;5052602;28;20041;-82
2022/07/09 05:18:04;;;;;;;1999.90;999.90;;;18.00;1.00;;;;;;5051852;28;20080;-82
2022/07/09 05:20:29;;;;;;;1999.90;999.90;;;18.10;1.00;;;;;;5053401;28;20092;-81
2022/07/09 05:22:55;;;;;;;1999.90;999.90;;;18.20;1.00;;;;;;5053103;28;20059;-81
2022/07/09 05:25:21;;;;;;;1999.90;999.90;;;18.30;99.90;;;;;;5053783;28;20048;-84
2022/07/09 05:27:47;;;;;;;1999.90;999.90;;;18.40;99.90;;;;;;5053573;28;20114;-82
2022/07/09 05:30:14;;;;;;;1999.90;999.90;;;18.50;99.90;;;;;;5053016;28;20041;-82
2022/07/09 05:32:41;;;;;;;1999.90;999.90;;;18.60;99.90;;;;;;5052047;28;20049;-81
2022/07/09 05:35:07;;;;;;;1999.90;999.90;;;18.70;99.90;;;;;;5051888;28;20210;-82
2022/07/09 05:37:34;;;;;;;1999.90;999.90;;;18.80;99.90;;;;;;5052352;28;20438;-82
2022/07/09 05:40:05;;;;;;;1999.90;999.90;;;18.80;99.90;;;;;;5053503;28;20059;-81
2022/07/09 05:42:32;;;;;;;1999.90;999.90;;;18.90;99.90;;;;;;5052685;28;20116;-81
2022/07/09 05:44:58;;;;;;;1999.90;999.90;;;19.00;99.90;;;;;;5052407;28;20064;-81
2022/07/09 05:47:24;;;;;;;1999.90;999.90;;;19.10;99.90;;;;;;5052517;28;20037;-82
2022/07/09 05:49:50;;;;;;;1999.90;999.90;;;19.20;99.90;;;;;;5053067;28;20048;-81
2022/07/09 05:52:15;;;;;;;1999.90;999.90;;;19.20;99.90;;;;;;5053659;28;20344;-81
2022/07/09 05:54:41;;;;;;;1999.90;999.90;;;19.20;99.90;;;;;;5052589;28;20067;-81
2022/07/09 05:57:07;;;;;;;1999.90;999.90;;;19.30;99.90;;;;;;5052340;28;20080;-81
2022/07/09 05:59:33;;;;;;;1999.90;999.90;;;19.40;99.90;;;;;;5052757;28;20045;-81
2022/07/09 06:01:58;;;;;;;1999.90;999.90;;;19.40;99.90;;;;;;5083145;28;20111;-81
2022/07/09 06:04:24;;;;;;;1999.90;999.90;;;19.40;99.90;;;;;;5051600;28;20448;-84
2022/07/09 06:06:50;;;;;;;1999.90;999.90;;;19.40;99.90;;;;;;5051794;28;20052;-81
2022/07/09 06:09:16;;;;;;;1999.90;999.90;;;19.40;99.90;;;;;;5052192;28;20501;-80
2022/07/09 06:11:41;;;;;;;1999.90;999.90;;;19.40;99.90;;;;;;5052173;28;20504;-81
2022/07/09 06:14:07;;;;;;;1999.90;999.90;;;19.50;99.90;;;;;;5052859;28;20045;-81
2022/07/09 06:16:33;;;;;;;1999.90;999.90;;;19.60;99.90;;;;;;5051055;28;20052;-80
2022/07/09 06:18:58;;;;;;;1999.90;999.90;;;19.70;99.90;;;;;;5052101;28;20499;-81
2022/07/09 06:21:24;;;;;;;1999.90;999.90;;;19.70;99.90;;;;;;5052706;28;20516;-81
2022/07/09 06:23:50;;;;;;;1999.90;999.90;;;19.70;99.90;;;;;;5050728;28;20048;-80
2022/07/09 06:26:15;;;;;;;1999.90;999.90;;;19.80;99.90;;;;;;5050763;28;20159;-81
2022/07/09 06:28:41;;;;;;;1999.90;999.90;;;19.80;99.90;;;;;;5051650;28;20049;-81
2022/07/09 06:31:06;;;;;;;1999.90;999.90;;;19.80;99.90;;;;;;5067458;28;20451;-81
2022/07/09 06:33:32;;;;;;;1999.90;999.90;;;19.80;99.90;;;;;;5051523;28;20051;-81
2022/07/09 06:35:58;;;;;;;1999.90;999.90;;;19.90;99.90;;;;;;5050838;28;20108;-81
2022/07/09 06:38:27;;;;;;;1999.90;999.90;;;19.90;99.90;;;;;;5052286;28;20489;-81
2022/07/09 06:40:54;;;;;;;1999.90;999.90;;;19.90;99.90;;;;;;5051058;28;20045;-81
2022/07/09 06:43:20;;;;;;;1999.90;999.90;;;19.90;99.90;;;;;;5084700;28;20474;-81
2022/07/09 06:45:46;;;;;;;1999.90;999.90;;;20.00;99.90;;;;;;5052029;28;20099;-81
2022/07/09 06:48:11;;;;;;;1999.90;999.90;;;20.10;99.10;;;;;;5051151;28;20044;-82
2022/07/09 06:50:37;;;;;;;1999.90;999.90;;;20.20;91.60;;;;;;5051590;28;20084;-81
2022/07/09 06:53:02;;;;;;;1999.90;999.90;;;20.30;93.10;;;;;;5051765;28;20076;-82
2022/07/09 06:55:28;;;;;;;1999.90;999.90;;;20.30;84.10;;;;;;5050716;28;20100;-85
2022/07/09 06:57:54;;;;;;;1999.90;999.90;;;20.40;75.70;;;;;;5050931;28;20187;-81
2022/07/09 07:00:20;;;;;;;1999.90;999.90;;;20.40;74.30;;;;;;5048948;28;20045;-81
2022/07/09 07:02:45;;;;;;;1999.90;999.90;;;20.40;56.50;;;;;;5050589;28;20053;-81
2022/07/09 07:05:11;;;;;;;1999.90;999.90;;;20.40;60.50;;;;;;5051510;28;20091;-81
2022/07/09 07:07:37;;;;;;;1999.90;999.90;;;20.40;55.30;;;;;;5050437;28;20045;-81
2022/07/09 07:10:02;;;;;;;1999.90;999.90;;;20.40;56.60;;;;;;5051884;28;20473;-79
2022/07/09 07:12:28;;;;;;;1999.90;999.90;;;20.40;54.60;;;;;;5051180;28;20515;-82
2022/07/09 07:14:54;;;;;;;1999.90;999.90;;;20.50;55.20;;;;;;5050645;28;20266;-79
2022/07/09 07:17:19;;;;;;;1957.85;999.90;;;20.60;56.30;;;;;;5054491;28;20044;-78
2022/07/09 07:19:45;;;;;;;1832.93;999.90;;;20.60;43.50;;;;;;5055882;28;20056;-79
2022/07/09 07:22:11;;;;;;;1467.47;999.90;;;20.60;33.20;;;;;;5056298;28;20045;-79
2022/07/09 07:24:36;;;;;;;1493.97;992.88;;;20.60;31.80;;;;;;5052630;28;20083;-79
2022/07/09 07:27:02;;;;;;;1996.35;994.20;;;20.60;34.50;;;;;;5052383;28;20076;-79
2022/07/09 07:29:28;;;;;;;1276.93;996.35;;;20.60;36.10;;;;;;5052815;28;20127;-79
2022/07/09 07:31:54;;;;;;;1160.65;999.90;;;20.60;29.50;;;;;;5052618;28;20041;-79
2022/07/09 07:34:22;;;;;;;1104.78;987.13;;;20.70;17.20;;;;;;5052776;28;20055;-79
2022/07/09 07:36:48;;;;;;;1526.63;981.22;;;20.70;7.00;;;;;;5050923;28;20419;-79
2022/07/09 07:39:14;;;;;;;1054.82;946.42;;;20.80;9.20;;;;;;5052981;28;20037;-79
2022/07/09 07:41:40;;;;;;;1076.78;971.70;;;21.00;1.00;;;;;;5050601;28;20065;-79
2022/07/09 07:44:05;;;;;;;1094.97;982.92;;;21.10;1.00;;;;;;5052199;28;20053;-80
2022/07/09 07:46:31;;;;;;;1041.40;941.67;;;21.30;1.00;;;;;;5051284;28;20434;-80
2022/07/09 07:48:57;;;;;;;1112.82;996.92;;;21.60;1.00;;;;;;5082268;28;20429;-80
2022/07/09 07:51:24;;;;;;;1091.80;976.17;;;21.90;1.00;;;;;;5051276;28;20045;-80
2022/07/09 07:53:50;;;;;;;1111.55;994.30;;;22.20;1.00;;;;;;5050276;28;20049;-79
2022/07/09 07:56:16;;;;;;;1094.18;982.20;;;22.60;1.00;;;;;;5083189;28;20056;-79
2022/07/09 07:58:41;;;;;;;1255.00;999.90;;;22.90;1.00;;;;;;5050295;28;20546;-80
2022/07/09 08:01:08;;;;;;;1052.40;953.13;;;23.10;1.00;;;;;;5047678;28;20044;-80
2022/07/09 08:03:33;;;;;;;966.42;877.15;;;23.40;1.00;;;;;;5049752;28;20059;-80
2022/07/09 08:06:00;;;;;;;1044.95;945.33;;;23.80;1.00;;;;;;5049076;28;20041;-80
2022/07/09 08:08:26;;;;;;;952.58;869.90;;;24.50;1.00;;;;;;5050283;28;20063;-79
2022/07/09 08:10:52;;;;;;;1089.13;974.60;;;25.10;1.00;;;;;;5049804;28;20095;-81
2022/07/09 08:13:18;;;;;;;925.53;845.20;;;25.70;99.90;;;;;;5066593;28;20138;-80
2022/07/09 08:15:44;;;;;;;910.47;828.60;;;26.40;99.90;;;;;;5083214;28;20049;-79
2022/07/09 08:18:12;;;;;;;978.08;891.08;;;26.80;99.90;;;;;;5050601;28;20063;-79
2022/07/09 08:20:39;;;;;;;955.50;869.22;;;26.80;99.90;;;;;;5050600;28;20098;-82
2022/07/09 08:23:05;;;;;;;735.42;676.55;;;26.40;99.90;;;;;;5050714;28;20351;-81
2022/07/09 08:25:31;;;;;;;734.95;676.90;;;26.30;99.90;;;;;;5082486;28;20051;-80
2022/07/09 08:27:56;;;;;;;1014.95;912.97;;;25.90;99.90;;;;;;5049820;28;20167;-80
2022/07/09 08:30:22;;;;;;;938.42;852.92;;;25.70;99.90;;;;;;5049048;28;20045;-80
2022/07/09 08:32:48;;;;;;;880.20;804.05;;;26.40;99.90;;;;;;5050000;28;20037;-79
2022/07/09 08:35:14;;;;;;;1032.97;936.55;;;27.20;99.90;;;;;;5050590;28;20080;-80
2022/07/09 08:37:39;;;;;;;1068.07;956.22;;;28.10;99.90;;;;;;5053661;28;20098;-82
2022/07/09 08:40:07;;;;;;;971.35;879.65;;;28.40;99.90;;;;;;5053797;28;20136;-79
2022/07/09 08:42:33;;;;;;;1041.85;938.55;;;27.80;99.90;;;;;;5054603;28;20080;-80
2022/07/09 08:44:59;;;;;;;1045.45;935.97;;;27.00;99.90;;;;;;5053776;28;20044;-80
2022/07/09 08:47:25;;;;;;;1134.18;999.90;;;26.20;99.90;;;;;;5053985;28;20087;-80
2022/07/09 08:49:56;;;;;;;1000.78;897.63;;;25.80;99.90;;;;;;5053237;28;20450;-79
2022/07/09 08:52:23;;;;;;;1049.63;943.47;;;26.60;99.90;;;;;;5054545;28;20041;-80
2022/07/09 08:54:48;;;;;;;972.40;891.15;;;28.30;99.90;;;;;;5036371;28;20099;-79
2022/07/09 08:57:14;;;;;;;1108.40;993.85;;;30.10;99.90;;;;;;5053766;28;20173;-80
2022/07/09 08:59:40;;;;;;;1070.80;965.97;;;30.90;99.90;;;;;;5053240;28;20057;-82
2022/07/09 09:02:09;;;;;;;868.83;796.47;;;30.40;99.90;;;;;;5050853;28;20134;-80
2022/07/09 09:04:39;;;;;;;1104.13;991.58;;;29.60;99.90;;;;;;5053383;28;20146;-80
2022/07/09 09:07:18;;;;;;;968.55;879.58;;;28.60;99.90;;;;;;5053954;28;20063;-79
2022/07/09 09:09:45;;;;;;;1327.65;992.92;;;28.70;99.90;;;;;;5085466;28;20056;-81
2022/07/09 09:12:12;;;;;;;850.83;779.23;;;29.60;99.90;;;;;;5054101;28;20041;-80
2022/07/09 09:14:37;;;;;;;1999.90;999.90;;;29.70;99.90;;;;;;5054513;28;20349;-80
2022/07/09 09:17:09;;;;;;;1999.90;999.90;;;29.20;99.90;;;;;;5052520;28;20081;-82
2022/07/09 09:19:35;;;;;;;1601.03;841.88;;;28.20;99.90;;;;;;5050744;28;20510;-80
2022/07/09 09:22:01;;;;;;;1999.90;999.90;;;27.20;99.90;;;;;;5053098;28;20552;-81
2022/07/09 09:24:29;;;;;;;1597.78;971.00;;;26.40;99.90;;;;;;5054508;28;20049;-80
2022/07/09 09:26:58;;;;;;;;;;;25.70;99.90;;;;;;5053241;28;20071;-80
2022/07/09 09:29:24;;;;;;;1999.90;999.90;;;25.40;99.90;;;;;;5053829;28;19967;-80
2022/07/09 09:31:50;;;;;;;972.58;868.20;;;26.00;99.90;;;;;;5052332;28;20049;-80
2022/07/09 09:34:17;;;;;;;1999.90;999.90;;;26.80;99.90;;;;;;5084767;28;20132;-80
2022/07/09 09:36:48;;;;;;;1999.90;999.90;;;27.40;99.90;;;;;;5052882;28;20052;-81
2022/07/09 09:39:22;;;;;;;1999.90;999.90;;;27.60;99.90;;;;;;5052672;28;20095;-81
2022/07/09 09:41:49;;;;;;;1999.90;999.90;;;27.30;99.90;;;;;;5035259;28;20088;-81
2022/07/09 09:44:16;;;;;;;;;;;26.60;99.90;;;;;;5054224;28;20052;-81
2022/07/09 09:46:44;;;;;;;1999.90;999.90;;;26.20;99.90;;;;;;5053079;28;20010;-80
2022/07/09 09:49:14;;;;;;;945.45;844.47;;;26.60;99.90;;;;;;5051016;28;20053;-80
2022/07/09 09:51:54;;;;;;;1999.90;999.90;;;27.40;99.90;;;;;;5053356;28;20045;-81
2022/07/09 09:54:21;;;;;;;1999.90;999.90;;;28.30;99.90;;;;;;5053022;28;20056;-82
2022/07/09 09:56:48;;;;;;;1999.90;999.90;;;29.30;99.90;;;;;;5084636;28;20068;-83
2022/07/09 09:59:15;;;;;;;1999.90;999.90;;;29.50;99.90;;;;;;5054350;28;20472;-80
2022/07/09 10:01:42;;;;;;;917.67;835.60;;;28.60;99.90;;;;;;5050459;28;20124;-81
2022/07/09 10:04:13;;;;;;;923.55;849.35;;;27.70;99.90;;;;;;5053771;28;20108;-81
2022/07/09 10:06:39;;;;;;;905.47;832.58;;;27.00;99.90;;;;;;5053606;28;20052;-80
2022/07/09 10:09:07;;;;;;;936.40;858.47;;;26.80;99.90;;;;;;5052668;28;20049;-81
2022/07/09 10:11:39;;;;;;;;;;;27.10;99.90;;;;;;5054125;28;20453;-81
2022/07/09 10:14:05;;;;;;;890.70;815.05;;;27.60;99.90;;;;;;5051753;28;19920;-80
2022/07/09 10:16:40;;;;;;;952.05;871.03;;;27.80;99.90;;;;;;5068419;28;20420;-80
2022/07/09 10:19:06;;;;;;;938.10;859.72;;;27.40;99.90;;;;;;5052307;28;20037;-80
2022/07/09 10:21:42;;;;;;;1009.75;922.35;;;27.30;99.90;;;;;;5052456;28;20062;-80
2022/07/09 10:24:09;;;;;;;1078.22;974.35;;;27.70;99.90;;;;;;5051246;28;20080;-81
2022/07/09 10:26:48;;;;;;;1062.75;962.78;;;28.50;99.90;;;;;;5053017;28;20057;-80
2022/07/09 10:29:22;;;;;;;1040.85;948.13;;;29.50;99.90;;;;;;5050960;28;20057;-81
2022/07/09 10:31:48;;;;;;;998.47;910.75;;;31.00;99.90;;;;;;5067723;28;20059;-81
2022/07/09 10:34:46;;;;;;;1023.70;932.63;;;31.40;99.90;;;;;;5051657;28;20109;-80
2022/07/09 10:37:12;;;;;;;982.97;899.85;;;30.60;99.90;;;;;;5051030;28;20055;-80
2022/07/09 10:39:37;;;;;;;983.47;898.63;;;30.70;99.90;;;;;;5051930;28;20044;-80
2022/07/09 10:42:18;;;;;;;975.40;891.45;;;31.60;99.90;;;;;;5051680;28;20432;-81
2022/07/09 10:44:45;;;;;;;964.10;882.28;;;32.10;99.90;;;;;;5052073;28;20048;-81
2022/07/09 10:47:11;;;;;;;1007.78;915.58;;;32.80;99.90;;;;;;5051539;28;20067;-80
2022/07/09 10:49:37;;;;;;;975.15;890.83;;;32.50;99.90;;;;;;5050381;28;20152;-78
2022/07/09 10:52:06;;;;;;;949.60;870.25;;;31.60;99.90;;;;;;5050724;28;20081;-81
2022/07/09 10:54:32;;;;;;;926.58;849.70;;;30.60;99.90;;;;;;5050265;28;20044;-79
2022/07/09 10:56:58;;;;;;;932.13;856.70;;;29.70;99.90;;;;;;5052030;28;20075;-80
2022/07/09 10:59:25;;;;;;;905.47;829.22;;;29.20;99.90;;;;;;5083524;28;20098;-80
2022/07/09 11:01:51;;;;;;;981.20;893.17;;;28.50;99.90;;;;;;5049365;28;20064;-80
2022/07/09 11:04:33;;;;;;;974.92;889.15;;;27.90;99.90;;;;;;5050476;28;20504;-82
2022/07/09 11:06:59;;;;;;;962.97;882.30;;;27.40;99.90;;;;;;5051946;28;20053;-81
2022/07/09 11:09:29;;;;;;;1026.57;931.97;;;27.30;99.90;;;;;;5066732;28;20049;-79
2022/07/09 11:11:55;;;;;;;1007.78;916.05;;;27.30;99.90;;;;;;5050877;28;20063;-83
2022/07/09 11:14:20;;;;;;;1002.25;912.53;;;27.20;99.90;;;;;;5052925;28;20049;-78
2022/07/09 11:16:58;;;;;;;985.75;896.90;;;27.20;99.90;;;;;;5054021;28;20092;-79
2022/07/09 11:19:24;;;;;;;882.92;810.15;;;26.80;99.90;;;;;;5052957;28;20074;-80
2022/07/09 11:21:59;;;;;;;985.00;901.10;;;26.50;99.90;;;;;;5052221;28;20102;-81
2022/07/09 11:24:25;;;;;;;970.72;881.92;;;26.40;99.90;;;;;;5083749;28;20128;-79
2022/07/09 11:26:51;;;;;;;968.05;884.03;;;26.30;99.90;;;;;;5083664;28;20127;-79
2022/07/09 11:29:17;;;;;;;974.55;888.72;;;26.30;99.90;;;;;;5051299;28;20124;-80
2022/07/09 11:31:50;;;;;;;988.88;899.05;;;26.90;99.90;;;;;;5049517;28;20098;-79
2022/07/09 11:34:17;;;;;;;1024.68;927.35;;;27.50;99.90;;;;;;5050151;28;20677;-81
2022/07/09 11:36:45;;;;;;;948.83;865.87;;;27.80;99.90;;;;;;5050826;28;20049;-82
2022/07/09 11:39:28;;;;;;;1012.13;918.67;;;27.40;99.90;;;;;;5051227;28;20275;-79
2022/07/09 11:41:55;;;;;;;970.63;883.38;;;27.10;99.90;;;;;;5051166;28;20051;-79
2022/07/09 11:44:25;;;;;;;875.88;806.50;;;26.80;99.90;;;;;;5050947;28;20492;-78
2022/07/09 11:47:11;;;;;;;898.15;826.17;;;26.60;99.90;;;;;;5051053;28;20432;-78
2022/07/09 11:49:39;;;;;;;859.15;793.70;;;26.80;99.90;;;;;;5050704;28;20052;-77
2022/07/09 11:52:17;;;;;;;851.55;788.75;;;27.70;99.90;;;;;;5050159;28;20049;-78
2022/07/09 11:55:07;;;;;;;958.03;874.28;;;28.70;99.90;;;;;;5049997;28;20051;-79
2022/07/09 11:57:35;;;;;;;884.42;817.28;;;29.40;99.90;;;;;;5050517;28;20052;-80
2022/07/09 12:00:04;;;;;;;995.55;907.58;;;29.70;99.90;;;;;;5066684;28;20493;-80
2022/07/09 12:02:34;;;;;;;924.03;848.22;;;30.20;99.90;;;;;;5047558;28;20132;-79